Time;durP1;ratioP1;P1;durP2;ratioP2;P2;SDS_P1;SDS_P2;PMS_P1;PMS_P2;Temp;Humidity;BMP_temperature;BMP_pressure;BME280_temperature;BME280_humidity;BME280_pressure;Samples;Min_cycle;Max_cycle;Signal;HPM_P1;HPM_P2
2023/07/31 00:00:33;;;;;;;4.38;2.10;;;17.90;77.90;;;;;;5050210;28;20041;-75
2023/07/31 00:02:58;;;;;;;5.22;2.60;;;17.90;77.90;;;;;;5049921;28;20123;-75
2023/07/31 00:05:24;;;;;;;4.15;2.60;;;17.90;77.90;;;;;;5050036;28;20045;-75
2023/07/31 00:07:50;;;;;;;4.75;2.25;;;17.80;77.90;;;;;;5049985;28;20072;-75
2023/07/31 00:10:15;;;;;;;4.13;2.00;;;17.90;77.90;;;;;;5050160;28;20147;-75
2023/07/31 00:12:43;;;;;;;3.40;1.80;;;17.90;77.90;;;;;;5050313;28;20440;-75
2023/07/31 00:15:09;;;;;;;3.15;2.50;;;17.90;77.90;;;;;;5050149;28;20394;-76
2023/07/31 00:17:36;;;;;;;3.55;1.98;;;17.90;78.00;;;;;;5049777;28;20044;-76
2023/07/31 00:20:02;;;;;;;3.38;2.08;;;17.80;78.00;;;;;;5017674;28;20041;-76
2023/07/31 00:22:27;;;;;;;3.28;1.77;;;17.80;78.00;;;;;;5033480;28;20366;-75
2023/07/31 00:24:53;;;;;;;3.67;2.20;;;17.90;78.10;;;;;;5035925;28;20045;-75
2023/07/31 00:27:19;;;;;;;4.20;2.13;;;17.80;78.10;;;;;;5037261;28;20435;-75
2023/07/31 00:29:44;;;;;;;4.25;2.25;;;17.90;78.10;;;;;;5053648;28;20033;-75
2023/07/31 00:32:10;;;;;;;3.28;1.63;;;17.80;78.10;;;;;;5053435;28;20053;-75
2023/07/31 00:34:36;;;;;;;2.58;1.70;;;17.90;78.20;;;;;;5053317;28;20091;-75
2023/07/31 00:37:02;;;;;;;3.45;1.67;;;17.80;78.10;;;;;;5037027;28;20381;-76
2023/07/31 00:39:27;;;;;;;3.22;1.50;;;17.80;78.10;;;;;;5036938;28;20047;-76
2023/07/31 00:41:53;;;;;;;3.08;1.73;;;17.80;78.10;;;;;;5053656;28;20152;-76
2023/07/31 00:44:19;;;;;;;2.70;1.88;;;17.80;78.20;;;;;;5053264;28;20103;-76
2023/07/31 00:46:44;;;;;;;2.80;1.50;;;17.80;78.20;;;;;;5053254;28;20068;-76
2023/07/31 00:49:11;;;;;;;1.58;0.95;;;17.80;78.30;;;;;;5053440;28;20045;-77
2023/07/31 00:51:37;;;;;;;2.95;1.50;;;17.70;78.30;;;;;;5037005;28;20098;-76
2023/07/31 00:54:03;;;;;;;2.70;1.10;;;17.70;78.50;;;;;;5053074;28;20507;-77
2023/07/31 00:56:29;;;;;;;1.95;1.08;;;17.70;78.50;;;;;;5020467;28;20076;-77
2023/07/31 00:58:56;;;;;;;2.13;1.30;;;17.70;78.60;;;;;;5053360;28;20048;-77
2023/07/31 01:01:22;;;;;;;1.65;1.20;;;17.60;78.60;;;;;;5036862;28;20548;-76
2023/07/31 01:03:51;;;;;;;1.48;0.90;;;17.60;78.70;;;;;;5036849;28;20184;-77
2023/07/31 01:06:47;;;;;;;1.52;0.90;;;17.60;78.90;;;;;;5054170;28;20045;-78
2023/07/31 01:09:37;;;;;;;1.85;0.90;;;17.60;78.90;;;;;;5036861;28;20080;-78
2023/07/31 01:12:06;;;;;;;1.52;1.00;;;17.60;78.90;;;;;;5053343;28;20045;-78
2023/07/31 01:14:32;;;;;;;2.30;0.70;;;17.50;79.00;;;;;;5036944;28;20049;-78
2023/07/31 01:16:57;;;;;;;1.55;0.70;;;17.50;79.00;;;;;;5053446;28;20033;-78
2023/07/31 01:19:26;;;;;;;0.90;0.70;;;17.50;79.20;;;;;;5036704;28;20045;-78
2023/07/31 01:22:12;;;;;;;1.67;0.93;;;17.50;79.20;;;;;;5053236;28;20518;-78
2023/07/31 01:25:00;;;;;;;1.83;0.88;;;17.50;79.30;;;;;;5053037;28;20128;-78
2023/07/31 01:27:34;;;;;;;1.30;0.80;;;17.40;79.30;;;;;;5036859;28;20510;-78
2023/07/31 01:30:16;;;;;;;1.02;0.60;;;17.50;79.50;;;;;;5052982;28;20041;-77
2023/07/31 01:32:43;;;;;;;1.00;0.73;;;17.40;79.60;;;;;;5036182;28;20061;-77
2023/07/31 01:35:10;;;;;;;1.20;0.80;;;17.40;79.60;;;;;;5052571;28;20095;-77
2023/07/31 01:37:36;;;;;;;2.13;0.90;;;17.40;79.80;;;;;;5052461;28;20040;-77
2023/07/31 01:40:02;;;;;;;0.93;0.60;;;17.40;79.90;;;;;;5052511;28;20128;-77
2023/07/31 01:42:27;;;;;;;1.20;0.57;;;17.50;79.90;;;;;;5035924;28;20055;-77
2023/07/31 01:44:53;;;;;;;1.65;0.73;;;17.40;79.90;;;;;;5052378;28;20044;-77
2023/07/31 01:47:19;;;;;;;1.88;0.60;;;17.50;80.00;;;;;;5035943;28;20052;-77
2023/07/31 01:49:44;;;;;;;1.50;0.88;;;17.50;80.10;;;;;;5035481;28;20044;-76
2023/07/31 01:52:10;;;;;;;2.78;0.68;;;17.50;80.10;;;;;;5052480;28;20059;-77
2023/07/31 01:54:36;;;;;;;1.20;0.90;;;17.50;80.10;;;;;;5019361;28;20113;-78
2023/07/31 01:57:02;;;;;;;1.20;0.63;;;17.50;80.20;;;;;;5036039;28;20392;-78
2023/07/31 01:59:28;;;;;;;1.10;0.65;;;17.50;80.20;;;;;;5052436;28;20049;-78
2023/07/31 02:01:54;;;;;;;0.75;0.50;;;17.50;80.20;;;;;;5052136;28;20041;-77
2023/07/31 02:04:20;;;;;;;0.68;0.50;;;17.50;80.30;;;;;;5051994;28;20499;-77
2023/07/31 02:06:46;;;;;;;0.88;0.43;;;17.50;80.20;;;;;;5035153;28;20052;-77
2023/07/31 02:09:11;;;;;;;1.15;0.70;;;17.50;80.10;;;;;;5035024;28;20056;-77
2023/07/31 02:11:37;;;;;;;1.48;0.55;;;17.60;79.90;;;;;;5051736;28;20044;-77
2023/07/31 02:14:03;;;;;;;1.15;0.60;;;17.60;79.90;;;;;;5051408;28;20043;-77
2023/07/31 02:16:28;;;;;;;1.40;0.75;;;17.70;80.00;;;;;;5018565;28;20083;-78
2023/07/31 02:18:54;;;;;;;1.70;0.63;;;17.70;80.00;;;;;;5051270;28;20095;-78
2023/07/31 02:21:20;;;;;;;1.13;0.63;;;17.70;80.10;;;;;;5035287;28;20048;-78
2023/07/31 02:23:45;;;;;;;1.27;0.68;;;17.70;80.10;;;;;;5051933;28;20319;-78
2023/07/31 02:26:11;;;;;;;1.33;0.63;;;17.70;80.00;;;;;;5051964;28;20044;-78
2023/07/31 02:28:37;;;;;;;0.80;0.60;;;17.70;80.00;;;;;;5051849;28;20054;-79
2023/07/31 02:31:03;;;;;;;1.25;0.60;;;17.70;79.90;;;;;;5035120;28;20045;-78
2023/07/31 02:33:28;;;;;;;2.55;0.70;;;17.80;80.00;;;;;;5018756;28;20075;-79
2023/07/31 02:35:54;;;;;;;0.73;0.60;;;17.80;80.00;;;;;;5018569;28;20150;-79
2023/07/31 02:38:20;;;;;;;1.75;0.60;;;17.80;80.00;;;;;;5051804;28;20036;-79
2023/07/31 02:40:46;;;;;;;1.20;0.70;;;17.80;80.00;;;;;;5018639;28;20045;-77
2023/07/31 02:43:11;;;;;;;0.52;0.47;;;17.80;80.00;;;;;;5051442;28;20040;-78
2023/07/31 02:45:37;;;;;;;2.45;0.50;;;17.80;80.00;;;;;;5051543;28;20041;-77
2023/07/31 02:48:03;;;;;;;2.45;0.70;;;17.80;80.00;;;;;;5051258;28;20326;-77
2023/07/31 02:50:29;;;;;;;0.95;0.55;;;17.80;80.00;;;;;;5052130;28;20065;-77
2023/07/31 02:52:54;;;;;;;1.50;0.60;;;17.80;80.00;;;;;;5035030;28;20433;-78
2023/07/31 02:55:20;;;;;;;1.52;0.80;;;17.80;80.00;;;;;;5034874;28;20044;-76
2023/07/31 02:57:47;;;;;;;2.85;1.02;;;17.80;80.10;;;;;;5050824;28;20033;-75
2023/07/31 03:00:13;;;;;;;1.65;0.70;;;17.80;80.30;;;;;;5034813;28;20064;-76
2023/07/31 03:02:38;;;;;;;0.77;0.40;;;17.80;80.30;;;;;;5051649;28;20040;-75
2023/07/31 03:05:04;;;;;;;0.93;0.73;;;17.80;80.30;;;;;;5035370;28;20036;-75
2023/07/31 03:07:30;;;;;;;3.05;1.20;;;17.80;80.20;;;;;;5035112;28;20064;-75
2023/07/31 03:09:56;;;;;;;3.00;0.80;;;17.80;80.20;;;;;;5051366;28;20128;-75
2023/07/31 03:12:22;;;;;;;2.70;1.10;;;17.80;80.10;;;;;;5034843;28;20037;-75
2023/07/31 03:14:48;;;;;;;2.63;1.15;;;17.80;80.20;;;;;;5052034;28;20029;-75
2023/07/31 03:17:13;;;;;;;2.35;1.17;;;17.80;80.40;;;;;;5042725;28;20569;-75
2023/07/31 03:19:39;;;;;;;2.53;1.10;;;17.80;80.30;;;;;;5057699;28;20049;-75
2023/07/31 03:22:05;;;;;;;3.70;1.10;;;17.80;80.30;;;;;;5054804;28;20045;-75
2023/07/31 03:24:31;;;;;;;1.80;1.10;;;17.90;80.30;;;;;;5050663;28;20175;-75
2023/07/31 03:26:56;;;;;;;3.95;1.30;;;17.90;80.20;;;;;;5033812;28;20079;-75
2023/07/31 03:29:22;;;;;;;2.25;1.30;;;17.90;80.10;;;;;;5033913;28;20093;-76
2023/07/31 03:31:48;;;;;;;2.80;1.20;;;17.90;80.10;;;;;;5050235;28;20092;-75
2023/07/31 03:34:14;;;;;;;5.22;1.73;;;17.90;80.10;;;;;;5033732;28;20037;-75
2023/07/31 03:36:39;;;;;;;4.55;1.70;;;17.90;80.10;;;;;;5034304;28;20045;-76
2023/07/31 03:39:05;;;;;;;2.97;1.40;;;18.00;80.10;;;;;;5050095;28;20135;-76
2023/07/31 03:41:31;;;;;;;3.42;1.30;;;18.00;80.20;;;;;;5017424;28;20041;-76
2023/07/31 03:43:56;;;;;;;3.30;1.35;;;18.00;80.20;;;;;;5050469;28;20033;-76
2023/07/31 03:46:23;;;;;;;2.90;1.67;;;18.00;80.30;;;;;;5034161;28;20461;-76
2023/07/31 03:48:49;;;;;;;5.15;2.45;;;18.00;80.20;;;;;;5050192;28;20500;-76
2023/07/31 03:51:15;;;;;;;5.50;1.95;;;18.00;80.30;;;;;;5050295;28;20044;-75
2023/07/31 03:53:41;;;;;;;4.95;2.10;;;18.00;80.40;;;;;;5050193;28;20044;-76
2023/07/31 03:56:06;;;;;;;4.07;2.30;;;18.00;80.30;;;;;;5033575;28;20033;-76
2023/07/31 03:58:32;;;;;;;5.90;3.15;;;18.00;80.30;;;;;;5050597;28;20044;-75
2023/07/31 04:00:58;;;;;;;3.75;2.17;;;18.10;80.50;;;;;;5037420;28;20075;-76
2023/07/31 04:03:23;;;;;;;8.18;3.78;;;18.10;80.40;;;;;;5037811;28;20041;-76
2023/07/31 04:05:49;;;;;;;8.70;4.00;;;18.10;80.50;;;;;;5037984;28;20076;-77
2023/07/31 04:08:15;;;;;;;6.10;2.67;;;18.10;80.70;;;;;;5053814;28;20377;-77
2023/07/31 04:10:40;;;;;;;9.07;3.08;;;18.10;80.60;;;;;;5054256;28;20099;-77
2023/07/31 04:13:06;;;;;;;8.88;3.65;;;18.10;80.60;;;;;;5020698;28;20407;-76
2023/07/31 04:15:32;;;;;;;7.93;3.95;;;18.10;80.60;;;;;;5037120;28;20043;-76
2023/07/31 04:17:57;;;;;;;7.90;3.90;;;18.10;80.70;;;;;;5053821;28;20118;-76
2023/07/31 04:20:23;;;;;;;6.93;3.53;;;18.10;80.70;;;;;;5054182;28;20080;-76
2023/07/31 04:22:49;;;;;;;8.07;4.38;;;18.10;80.60;;;;;;5054129;28;20048;-76
2023/07/31 04:25:15;;;;;;;8.13;4.00;;;18.10;80.70;;;;;;5020988;28;20055;-76
2023/07/31 04:27:41;;;;;;;11.75;4.68;;;18.10;80.70;;;;;;5053872;28;20485;-76
2023/07/31 04:30:07;;;;;;;8.80;4.80;;;18.20;80.70;;;;;;5036838;28;20080;-76
2023/07/31 04:32:32;;;;;;;12.52;4.80;;;18.10;80.80;;;;;;5037161;28;20088;-76
2023/07/31 04:34:58;;;;;;;14.80;5.10;;;18.20;81.00;;;;;;5053433;28;20099;-79
2023/07/31 04:37:24;;;;;;;10.88;4.45;;;18.10;80.90;;;;;;5053491;28;20033;-79
2023/07/31 04:39:49;;;;;;;12.90;5.65;;;18.20;81.00;;;;;;5037127;28;20037;-78
2023/07/31 04:42:15;;;;;;;12.15;5.10;;;18.20;81.20;;;;;;5053347;28;20036;-80
2023/07/31 04:44:41;;;;;;;17.25;6.03;;;18.20;81.30;;;;;;5037064;28;20040;-79
2023/07/31 04:47:06;;;;;;;12.70;5.07;;;18.10;81.10;;;;;;5053604;28;20048;-80
2023/07/31 04:49:32;;;;;;;12.60;6.00;;;18.20;81.20;;;;;;5053275;28;20480;-76
2023/07/31 04:51:58;;;;;;;14.93;5.68;;;18.20;81.30;;;;;;5021716;28;20117;-76
2023/07/31 04:54:24;;;;;;;14.45;5.97;;;18.10;81.30;;;;;;5058064;28;20048;-76
2023/07/31 04:56:50;;;;;;;12.43;5.40;;;18.20;81.40;;;;;;5058369;28;20037;-75
2023/07/31 04:59:15;;;;;;;11.45;5.45;;;18.20;81.40;;;;;;5025428;28;20479;-76
2023/07/31 05:01:41;;;;;;;14.25;5.60;;;18.20;81.40;;;;;;5061473;28;20078;-77
2023/07/31 05:04:07;;;;;;;13.82;5.15;;;18.20;81.40;;;;;;5062893;28;20037;-75
2023/07/31 05:06:32;;;;;;;14.52;5.72;;;18.20;81.40;;;;;;5062671;28;20044;-75
2023/07/31 05:08:58;;;;;;;12.32;5.38;;;18.20;81.40;;;;;;5061172;28;20048;-74
2023/07/31 05:11:24;;;;;;;12.75;5.82;;;18.20;81.50;;;;;;5055423;28;20041;-75
2023/07/31 05:13:49;;;;;;;9.48;5.45;;;18.20;81.50;;;;;;5054201;28;20500;-75
2023/07/31 05:16:15;;;;;;;14.85;5.78;;;18.20;81.40;;;;;;5036276;28;20503;-75
2023/07/31 05:18:41;;;;;;;11.85;5.30;;;18.20;81.40;;;;;;5036566;28;20040;-75
2023/07/31 05:21:07;;;;;;;11.68;5.72;;;18.20;81.30;;;;;;5052874;28;20044;-75
2023/07/31 05:23:33;;;;;;;12.75;4.93;;;18.20;81.20;;;;;;5052994;28;20123;-75
2023/07/31 05:26:05;;;;;;;16.70;6.68;;;18.20;81.20;;;;;;5052638;28;20115;-75
2023/07/31 05:28:31;;;;;;;10.35;4.55;;;18.20;81.30;;;;;;5052865;28;20037;-75
2023/07/31 05:31:01;;;;;;;12.43;5.85;;;18.20;81.20;;;;;;5052884;28;20097;-75
2023/07/31 05:33:27;;;;;;;13.15;5.20;;;18.30;81.30;;;;;;5036063;28;20447;-75
2023/07/31 05:35:53;;;;;;;12.20;5.95;;;18.20;81.20;;;;;;5052891;28;20052;-76
2023/07/31 05:38:18;;;;;;;16.63;6.95;;;18.20;81.30;;;;;;5036070;28;20361;-76
2023/07/31 05:40:44;;;;;;;13.73;5.63;;;18.30;81.40;;;;;;5035809;28;20041;-75
2023/07/31 05:43:10;;;;;;;17.40;6.93;;;18.20;81.40;;;;;;5035743;28;20407;-75
2023/07/31 05:45:36;;;;;;;14.02;5.78;;;18.30;81.60;;;;;;5052083;28;20045;-76
2023/07/31 05:48:03;;;;;;;14.93;6.30;;;18.30;81.60;;;;;;5035565;28;20037;-75
2023/07/31 05:50:28;;;;;;;14.95;6.20;;;18.30;81.30;;;;;;5035452;28;20101;-76
2023/07/31 05:52:54;;;;;;;11.60;6.60;;;18.30;81.20;;;;;;5052011;28;20040;-76
2023/07/31 05:55:20;;;;;;;10.82;5.25;;;18.30;81.30;;;;;;5051963;28;20059;-76
2023/07/31 05:57:46;;;;;;;12.07;5.65;;;18.30;81.20;;;;;;5035343;28;20465;-76
2023/07/31 06:00:13;;;;;;;17.23;7.00;;;18.30;81.30;;;;;;5035605;28;20091;-75
2023/07/31 06:02:39;;;;;;;16.10;6.38;;;18.30;81.50;;;;;;5035439;28;20041;-76
2023/07/31 06:05:08;;;;;;;15.52;6.45;;;18.30;81.60;;;;;;5051830;28;20634;-75
2023/07/31 06:07:34;;;;;;;14.18;5.80;;;18.30;81.60;;;;;;5051700;28;20040;-76
2023/07/31 06:10:04;;;;;;;14.48;5.47;;;18.30;81.70;;;;;;5051941;28;20048;-76
2023/07/31 06:12:31;;;;;;;15.68;6.53;;;18.30;81.60;;;;;;5052688;28;20037;-76
2023/07/31 06:14:57;;;;;;;13.52;5.75;;;18.30;81.70;;;;;;5052196;28;20041;-75
2023/07/31 06:17:23;;;;;;;18.55;6.72;;;18.30;81.70;;;;;;5052172;28;20041;-76
2023/07/31 06:19:49;;;;;;;14.98;6.03;;;18.30;81.70;;;;;;5035542;28;20044;-75
2023/07/31 06:22:15;;;;;;;17.98;6.47;;;18.30;81.70;;;;;;5035286;28;20047;-75
2023/07/31 06:24:41;;;;;;;15.93;6.70;;;18.30;81.60;;;;;;5035456;28;20128;-76
2023/07/31 06:27:07;;;;;;;17.25;6.72;;;18.30;81.60;;;;;;5051964;28;20098;-76
2023/07/31 06:29:32;;;;;;;15.52;6.43;;;18.30;81.50;;;;;;5035428;28;20092;-76
2023/07/31 06:31:59;;;;;;;14.13;6.43;;;18.30;81.50;;;;;;5035427;28;20053;-76
2023/07/31 06:34:24;;;;;;;13.95;5.82;;;18.30;81.50;;;;;;5051804;28;20051;-76
2023/07/31 06:36:50;;;;;;;11.85;7.32;;;18.30;81.70;;;;;;5035561;28;20045;-78
2023/07/31 06:39:16;;;;;;;14.13;5.50;;;18.30;81.80;;;;;;5035486;28;20041;-79
2023/07/31 06:41:42;;;;;;;15.95;6.85;;;18.30;81.80;;;;;;5052128;28;20045;-77
2023/07/31 06:44:08;;;;;;;14.48;6.07;;;18.30;81.90;;;;;;5052247;28;20094;-78
2023/07/31 06:46:34;;;;;;;14.75;5.72;;;18.30;82.00;;;;;;5052104;28;20438;-76
2023/07/31 06:49:00;;;;;;;12.32;5.15;;;18.30;82.10;;;;;;5051647;28;20041;-76
2023/07/31 06:51:25;;;;;;;9.82;5.13;;;18.30;82.10;;;;;;5035036;28;20075;-76
2023/07/31 06:53:51;;;;;;;11.90;4.85;;;18.30;82.10;;;;;;5051872;28;20056;-75
2023/07/31 06:56:17;;;;;;;8.82;4.63;;;18.20;82.10;;;;;;5018866;28;20037;-75
2023/07/31 06:58:42;;;;;;;8.38;4.03;;;18.30;82.20;;;;;;5051464;28;20047;-76
2023/07/31 07:01:08;;;;;;;8.93;4.45;;;18.30;82.30;;;;;;5018659;28;20045;-76
2023/07/31 07:03:34;;;;;;;7.47;3.85;;;18.20;82.20;;;;;;5051236;28;20102;-76
2023/07/31 07:06:00;;;;;;;7.18;4.53;;;18.30;82.30;;;;;;5035218;28;20053;-76
2023/07/31 07:08:26;;;;;;;8.20;3.75;;;18.30;82.30;;;;;;5034775;28;20102;-76
2023/07/31 07:10:52;;;;;;;8.45;3.97;;;18.30;82.40;;;;;;5051449;28;20039;-76
2023/07/31 07:13:18;;;;;;;8.85;4.72;;;18.30;82.40;;;;;;5035129;28;20052;-76
2023/07/31 07:15:49;;;;;;;5.65;3.50;;;18.30;82.40;;;;;;5034772;28;20041;-76
2023/07/31 07:18:14;;;;;;;7.30;4.07;;;18.30;82.40;;;;;;5051036;28;20120;-76
2023/07/31 07:20:45;;;;;;;6.28;3.10;;;18.30;82.40;;;;;;5018222;28;20079;-76
2023/07/31 07:23:11;;;;;;;5.57;3.33;;;18.30;82.40;;;;;;5034792;28;20040;-76
2023/07/31 07:25:38;;;;;;;6.20;2.72;;;18.30;82.60;;;;;;5051496;28;20163;-75
2023/07/31 07:28:03;;;;;;;8.15;2.88;;;18.30;82.70;;;;;;5034663;28;20484;-79
2023/07/31 07:30:29;;;;;;;4.28;2.30;;;18.30;82.60;;;;;;5018512;28;20043;-79
2023/07/31 07:32:55;;;;;;;5.53;2.45;;;18.30;82.70;;;;;;5001754;28;20055;-79
2023/07/31 07:35:21;;;;;;;4.43;2.80;;;18.30;82.70;;;;;;5035005;28;20037;-78
2023/07/31 07:37:49;;;;;;;5.25;2.33;;;18.30;82.60;;;;;;5035056;28;20071;-79
2023/07/31 07:40:15;;;;;;;3.85;2.65;;;18.30;82.60;;;;;;5051343;28;20041;-78
2023/07/31 07:42:41;;;;;;;3.63;2.28;;;18.30;82.60;;;;;;5051234;28;20491;-79
2023/07/31 07:45:07;;;;;;;4.38;2.53;;;18.40;82.70;;;;;;5034819;28;20033;-79
2023/07/31 07:47:33;;;;;;;4.95;2.38;;;18.40;82.80;;;;;;5051792;28;20071;-78
2023/07/31 07:49:59;;;;;;;3.88;2.00;;;18.40;82.80;;;;;;5051785;28;20041;-78
2023/07/31 07:52:24;;;;;;;4.18;1.95;;;18.40;82.80;;;;;;5051697;28;20033;-78
2023/07/31 07:54:50;;;;;;;3.08;1.80;;;18.40;82.80;;;;;;5034826;28;20123;-78
2023/07/31 07:57:16;;;;;;;5.60;2.85;;;18.40;82.80;;;;;;5018235;28;20480;-77
2023/07/31 07:59:42;;;;;;;5.07;2.00;;;18.40;82.90;;;;;;5034546;28;20045;-77
2023/07/31 08:02:08;;;;;;;3.05;1.70;;;18.50;83.00;;;;;;5034347;28;20126;-79
2023/07/31 08:04:33;;;;;;;2.75;1.58;;;18.40;82.70;;;;;;5051010;28;20160;-79
2023/07/31 08:06:59;;;;;;;2.40;1.50;;;18.50;82.80;;;;;;5051093;28;20044;-79
2023/07/31 08:09:25;;;;;;;3.17;1.83;;;18.50;83.00;;;;;;5034213;28;20444;-78
2023/07/31 08:11:50;;;;;;;2.47;1.08;;;18.60;83.20;;;;;;5051300;28;20040;-80
2023/07/31 08:14:16;;;;;;;2.33;1.58;;;18.60;83.40;;;;;;5051009;28;20095;-79
2023/07/31 08:16:42;;;;;;;2.25;1.20;;;18.60;83.30;;;;;;5017866;28;20041;-79
2023/07/31 08:19:08;;;;;;;2.10;1.40;;;18.60;83.20;;;;;;5051500;28;20044;-77
2023/07/31 08:21:33;;;;;;;2.88;1.58;;;18.60;83.00;;;;;;5051274;28;20507;-78
2023/07/31 08:23:59;;;;;;;1.77;1.27;;;18.70;82.90;;;;;;5050638;28;20477;-78
2023/07/31 08:26:25;;;;;;;2.50;1.42;;;18.70;82.90;;;;;;5034288;28;20045;-79
2023/07/31 08:28:50;;;;;;;1.73;1.10;;;18.70;82.80;;;;;;5017660;28;20132;-78
2023/07/31 08:31:16;;;;;;;1.30;1.00;;;18.70;82.80;;;;;;5050409;28;20155;-79
2023/07/31 08:33:42;;;;;;;1.92;1.08;;;18.70;82.80;;;;;;5050760;28;20057;-79
2023/07/31 08:36:08;;;;;;;2.70;1.00;;;18.70;82.80;;;;;;5033992;28;20033;-76
2023/07/31 08:38:34;;;;;;;1.50;1.08;;;18.70;82.90;;;;;;5050752;28;20076;-76
2023/07/31 08:40:59;;;;;;;2.63;1.20;;;18.70;83.00;;;;;;5050487;28;20475;-76
2023/07/31 08:43:26;;;;;;;2.25;1.13;;;18.70;83.20;;;;;;5050422;28;20037;-76
2023/07/31 08:45:52;;;;;;;2.67;1.10;;;18.80;83.30;;;;;;5036152;28;20064;-76
2023/07/31 08:48:20;;;;;;;4.18;1.27;;;18.80;83.40;;;;;;5037269;28;20433;-76
2023/07/31 08:50:46;;;;;;;1.48;0.85;;;18.80;83.50;;;;;;5037315;28;20052;-76
2023/07/31 08:53:12;;;;;;;1.77;0.82;;;18.80;83.60;;;;;;5053965;28;20045;-76
2023/07/31 08:55:38;;;;;;;1.13;0.88;;;18.80;83.80;;;;;;5053681;28;20044;-76
2023/07/31 08:58:04;;;;;;;1.98;0.95;;;18.80;83.80;;;;;;5037169;28;20120;-76
2023/07/31 09:00:32;;;;;;;1.20;0.73;;;18.80;83.80;;;;;;5037006;28;20048;-76
2023/07/31 09:03:01;;;;;;;1.38;0.88;;;18.90;84.00;;;;;;5037051;28;20083;-76
2023/07/31 09:05:29;;;;;;;1.48;0.77;;;18.90;84.10;;;;;;5053856;28;20045;-76
2023/07/31 09:07:57;;;;;;;1.08;0.90;;;19.00;83.90;;;;;;5053833;28;20431;-75
2023/07/31 09:10:23;;;;;;;1.23;0.80;;;19.00;83.80;;;;;;5053449;28;20051;-76
2023/07/31 09:12:51;;;;;;;2.25;0.82;;;19.00;83.90;;;;;;5053480;28;20066;-78
2023/07/31 09:15:18;;;;;;;1.38;0.70;;;19.00;84.00;;;;;;5053735;28;20116;-78
2023/07/31 09:17:43;;;;;;;1.17;0.70;;;19.10;84.10;;;;;;5053901;28;20040;-78
2023/07/31 09:20:20;;;;;;;1.65;0.55;;;19.10;84.10;;;;;;5053418;28;20500;-78
2023/07/31 09:22:48;;;;;;;0.70;0.50;;;19.10;84.10;;;;;;5053898;28;20435;-78
2023/07/31 09:25:25;;;;;;;2.20;0.80;;;19.10;83.90;;;;;;5053546;28;20484;-78
2023/07/31 09:27:59;;;;;;;1.20;0.55;;;19.20;83.90;;;;;;5053640;28;20051;-78
2023/07/31 09:30:26;;;;;;;1.05;0.60;;;19.20;83.90;;;;;;5053443;28;20051;-78
2023/07/31 09:33:04;;;;;;;0.98;0.60;;;19.20;83.80;;;;;;5036636;28;20060;-78
2023/07/31 09:35:32;;;;;;;1.02;0.50;;;19.20;83.90;;;;;;5053242;28;20040;-78
2023/07/31 09:38:05;;;;;;;0.50;0.40;;;19.30;84.20;;;;;;5053161;28;20123;-78
2023/07/31 09:40:31;;;;;;;1.02;0.55;;;19.30;84.50;;;;;;5053223;28;20037;-77
2023/07/31 09:43:05;;;;;;;0.93;0.73;;;19.40;84.50;;;;;;5054522;28;20033;-78
2023/07/31 09:45:38;;;;;;;1.33;0.50;;;19.40;84.50;;;;;;5053221;28;20037;-78
2023/07/31 09:48:11;;;;;;;0.90;0.50;;;19.50;84.50;;;;;;5053186;28;20033;-78
2023/07/31 09:50:42;;;;;;;0.70;0.50;;;19.50;84.50;;;;;;5052966;28;20488;-78
2023/07/31 09:53:08;;;;;;;0.70;0.50;;;19.60;84.60;;;;;;5036676;28;20056;-78
2023/07/31 09:55:34;;;;;;;0.65;0.50;;;19.60;84.50;;;;;;5053025;28;20040;-78
2023/07/31 09:58:09;;;;;;;0.80;0.40;;;19.60;84.50;;;;;;5052762;28;20127;-77
2023/07/31 10:00:36;;;;;;;1.10;0.50;;;19.70;84.40;;;;;;5052874;28;20033;-78
2023/07/31 10:03:05;;;;;;;0.52;0.30;;;19.70;84.40;;;;;;5036236;28;20123;-78
2023/07/31 10:05:40;;;;;;;0.75;0.30;;;19.70;84.20;;;;;;5052807;28;20036;-76
2023/07/31 10:08:08;;;;;;;1.15;0.40;;;19.80;84.20;;;;;;5052684;28;20244;-75
2023/07/31 10:10:36;;;;;;;0.80;0.40;;;19.80;84.10;;;;;;5052643;28;20045;-75
2023/07/31 10:13:05;;;;;;;0.52;0.40;;;19.90;83.90;;;;;;5036039;28;20124;-75
2023/07/31 10:15:32;;;;;;;0.35;0.30;;;19.90;83.90;;;;;;5052366;28;20049;-76
2023/07/31 10:17:59;;;;;;;0.30;0.20;;;19.90;83.90;;;;;;5019666;28;20033;-77
2023/07/31 10:20:26;;;;;;;0.20;0.20;;;20.00;84.00;;;;;;5052972;28;20041;-77
2023/07/31 10:22:53;;;;;;;0.30;0.20;;;20.00;84.10;;;;;;5020594;28;20083;-78
2023/07/31 10:25:20;;;;;;;0.38;0.20;;;20.10;84.00;;;;;;5052810;28;20041;-77
2023/07/31 10:27:48;;;;;;;0.10;0.10;;;20.10;83.90;;;;;;5052244;28;20066;-78
2023/07/31 10:30:19;;;;;;;1.15;0.40;;;20.10;83.80;;;;;;5051701;28;20049;-78
2023/07/31 10:32:46;;;;;;;0.60;0.20;;;20.20;83.70;;;;;;5034955;28;20053;-78
2023/07/31 10:35:12;;;;;;;0.30;0.20;;;20.20;83.60;;;;;;5051341;28;20116;-78
2023/07/31 10:37:43;;;;;;;0.98;0.10;;;20.20;83.50;;;;;;5035256;28;20120;-78
2023/07/31 10:40:22;;;;;;;1.73;0.28;;;20.20;83.30;;;;;;5034602;28;20084;-78
2023/07/31 10:42:53;;;;;;;0.40;0.20;;;20.30;83.30;;;;;;5051260;28;20049;-78
2023/07/31 10:45:37;;;;;;;0.68;0.20;;;20.30;83.00;;;;;;5051046;28;20087;-78
2023/07/31 10:48:02;;;;;;;0.47;0.28;;;20.30;82.80;;;;;;5050700;28;20072;-79
2023/07/31 10:50:29;;;;;;;0.50;0.20;;;20.30;82.90;;;;;;5051216;28;20079;-78
2023/07/31 10:53:00;;;;;;;0.88;0.28;;;20.30;82.80;;;;;;5050831;28;20166;-78
2023/07/31 10:55:38;;;;;;;1.15;0.63;;;20.30;82.80;;;;;;5051059;28;20041;-79
2023/07/31 10:58:10;;;;;;;0.70;0.40;;;20.30;82.70;;;;;;5051451;28;20072;-79
2023/07/31 11:00:41;;;;;;;1.73;0.70;;;20.30;82.80;;;;;;5050978;28;20602;-78
2023/07/31 11:03:18;;;;;;;2.33;0.80;;;20.40;83.00;;;;;;5035113;28;20045;-78
2023/07/31 11:05:49;;;;;;;1.77;0.95;;;20.40;83.00;;;;;;5051114;28;20392;-78
2023/07/31 11:08:22;;;;;;;1.92;1.00;;;20.50;83.40;;;;;;5050722;28;20384;-77
2023/07/31 11:11:01;;;;;;;2.58;1.00;;;20.40;83.30;;;;;;5051372;28;20134;-79
2023/07/31 11:13:30;;;;;;;2.88;0.80;;;20.50;83.20;;;;;;5050927;28;20159;-79
2023/07/31 11:15:56;;;;;;;2.88;1.15;;;20.50;83.10;;;;;;5051154;28;20041;-78
2023/07/31 11:18:21;;;;;;;3.08;1.60;;;20.50;83.20;;;;;;5050946;28;20037;-79
2023/07/31 11:20:47;;;;;;;3.20;1.02;;;20.60;83.60;;;;;;5050737;28;20377;-78
2023/07/31 11:23:15;;;;;;;3.90;1.38;;;20.60;83.90;;;;;;5034747;28;20049;-79
2023/07/31 11:25:41;;;;;;;3.03;1.10;;;20.70;84.00;;;;;;5034153;28;20045;-79
2023/07/31 11:28:12;;;;;;;1.60;1.10;;;20.70;83.80;;;;;;5051184;28;20125;-79
2023/07/31 11:30:40;;;;;;;2.15;1.20;;;20.80;83.80;;;;;;5050688;28;20059;-79
2023/07/31 11:33:07;;;;;;;4.00;1.10;;;20.80;83.50;;;;;;5034164;28;20424;-79
2023/07/31 11:35:35;;;;;;;3.38;1.35;;;20.90;83.30;;;;;;5034736;28;20064;-78
2023/07/31 11:38:02;;;;;;;3.85;1.60;;;20.90;83.20;;;;;;5051148;28;20102;-78
2023/07/31 11:40:29;;;;;;;3.33;1.90;;;20.90;83.00;;;;;;5050771;28;20091;-78
2023/07/31 11:43:03;;;;;;;3.85;1.60;;;20.90;82.70;;;;;;5050946;28;20041;-78
2023/07/31 11:45:30;;;;;;;4.97;1.98;;;21.00;82.50;;;;;;5034594;28;20041;-75
2023/07/31 11:47:56;;;;;;;4.95;2.00;;;21.00;82.40;;;;;;5033578;28;20045;-75
2023/07/31 11:50:26;;;;;;;5.75;2.10;;;21.00;82.40;;;;;;5050150;28;20123;-76
2023/07/31 11:53:01;;;;;;;4.35;1.63;;;21.00;82.30;;;;;;5050292;28;20505;-75
2023/07/31 11:55:27;;;;;;;2.65;1.33;;;21.00;82.00;;;;;;5033780;28;20119;-75
2023/07/31 11:57:55;;;;;;;2.53;0.95;;;21.00;81.80;;;;;;5034129;28;20453;-77
2023/07/31 12:00:21;;;;;;;1.63;0.80;;;21.00;81.10;;;;;;5034160;28;20045;-78
2023/07/31 12:02:47;;;;;;;3.47;0.70;;;21.00;80.50;;;;;;5050993;28;20396;-78
2023/07/31 12:05:13;;;;;;;2.17;0.73;;;20.90;80.60;;;;;;5052243;28;20037;-77
2023/07/31 12:07:55;;;;;;;1.52;0.73;;;20.90;80.80;;;;;;5052101;28;20048;-74
2023/07/31 12:10:28;;;;;;;1.95;0.88;;;20.90;81.00;;;;;;5050252;28;20041;-74
2023/07/31 12:13:04;;;;;;;2.43;1.00;;;20.90;81.20;;;;;;5050419;28;20048;-74
2023/07/31 12:15:42;;;;;;;1.90;0.80;;;20.90;81.50;;;;;;5033547;28;20048;-74
2023/07/31 12:18:21;;;;;;;1.80;0.80;;;20.90;81.30;;;;;;5033892;28;20044;-74
2023/07/31 12:20:54;;;;;;;2.47;0.93;;;20.90;81.10;;;;;;5052423;28;20045;-74
2023/07/31 12:23:31;;;;;;;3.88;1.30;;;20.90;81.20;;;;;;5054153;28;20063;-74
2023/07/31 12:26:03;;;;;;;4.93;1.25;;;20.90;81.20;;;;;;5054068;28;20033;-74
2023/07/31 12:28:29;;;;;;;4.00;1.50;;;20.90;81.40;;;;;;5037431;28;20132;-74
2023/07/31 12:31:00;;;;;;;3.70;1.50;;;21.00;81.50;;;;;;5037074;28;20697;-74
2023/07/31 12:33:38;;;;;;;4.15;2.17;;;21.00;81.40;;;;;;5053752;28;20090;-74
2023/07/31 12:36:14;;;;;;;3.97;2.33;;;21.00;81.30;;;;;;5053622;28;20055;-74
2023/07/31 12:38:40;;;;;;;7.70;2.10;;;21.00;81.10;;;;;;5037271;28;20041;-74
2023/07/31 12:41:06;;;;;;;5.30;2.10;;;21.00;81.10;;;;;;5036967;28;20052;-74
2023/07/31 12:43:33;;;;;;;5.50;1.90;;;21.10;81.10;;;;;;5036890;28;20045;-74
2023/07/31 12:45:59;;;;;;;5.25;2.20;;;21.10;81.00;;;;;;5036922;28;20049;-74